Time;durP1;ratioP1;P1;durP2;ratioP2;P2;SDS_P1;SDS_P2;PMS_P1;PMS_P2;Temp;Humidity;BMP_temperature;BMP_pressure;BME280_temperature;BME280_humidity;BME280_pressure;Samples;Min_cycle;Max_cycle;Signal;HPM_P1;HPM_P2
2023/03/26 00:01:48;;;;;;;1999.90;999.90;;;11.30;99.90;;;;;;4878033;29;20079;-82
2023/03/26 00:04:18;;;;;;;1999.90;999.90;;;9.90;99.90;;;;;;4893326;29;20092;-82
2023/03/26 00:06:47;;;;;;;1999.90;999.90;;;12.30;1.00;;;;;;4899398;29;20044;-81
2023/03/26 00:09:16;;;;;;;1999.90;999.90;;;9.90;1.00;;;;;;4906174;29;20059;-81
2023/03/26 00:11:45;;;;;;;1999.90;292.35;;;9.90;1.00;;;;;;4948480;29;20050;-82
2023/03/26 00:14:12;;;;;;;1999.90;999.90;;;10.00;58.50;;;;;;4884098;29;20052;-82
2023/03/26 00:16:42;;;;;;;1999.90;999.90;;;10.30;99.90;;;;;;4913645;29;20059;-84
2023/03/26 00:19:11;;;;;;;1999.90;999.90;;;9.40;99.90;;;;;;4915832;29;20301;-82
2023/03/26 00:21:43;;;;;;;1999.90;999.90;;;8.20;99.90;;;;;;4912128;29;20048;-83
2023/03/26 00:24:28;;;;;;;1999.90;999.90;;;9.50;99.90;;;;;;4885058;29;20060;-82
2023/03/26 00:27:04;;;;;;;1999.90;469.10;;;9.50;99.90;;;;;;4917412;29;20063;-82
2023/03/26 00:29:47;;;;;;;1999.90;908.45;;;9.70;99.90;;;;;;4898930;29;20056;-81
2023/03/26 00:32:16;;;;;;;1999.90;462.00;;;9.60;99.90;;;;;;4897633;29;20048;-82
2023/03/26 00:34:57;;;;;;;1999.90;999.90;;;9.70;99.90;;;;;;4919662;29;20533;-82
2023/03/26 00:37:33;;;;;;;1999.90;999.90;;;9.70;99.90;;;;;;4917179;29;20052;-81
2023/03/26 00:40:06;;;;;;;1999.90;999.90;;;9.70;99.90;;;;;;4916695;29;20052;-84
2023/03/26 00:42:36;;;;;;;1999.90;999.90;;;9.90;99.90;;;;;;4917944;29;20059;-82
2023/03/26 00:45:06;;;;;;;1999.90;519.35;;;9.90;16.40;;;;;;4895057;29;20084;-82
2023/03/26 00:47:44;;;;;;;1999.90;633.22;;;9.90;65.90;;;;;;4897556;29;20056;-79
2023/03/26 00:50:15;;;;;;;1999.90;485.65;;;10.20;71.70;;;;;;4895768;29;20135;-79
2023/03/26 00:52:45;;;;;;;;;;;10.00;99.90;;;;;;4868901;29;20107;-79
2023/03/26 00:55:12;;;;;;;1999.90;632.10;;;9.90;99.90;;;;;;4915604;29;19923;-81
2023/03/26 00:57:39;;;;;;;1999.90;443.83;;;10.00;1.00;;;;;;4914512;29;20059;-78
2023/03/26 01:00:15;;;;;;;1999.90;999.90;;;10.60;1.00;;;;;;4884744;29;20147;-79
2023/03/26 01:02:43;;;;;;;1999.90;999.90;;;9.90;1.00;;;;;;4901421;29;20040;-79
2023/03/26 01:05:51;;;;;;;1999.90;999.90;;;10.10;1.00;;;;;;4901234;29;20094;-79
2023/03/26 01:08:21;;;;;;;1999.90;999.90;;;9.90;99.90;;;;;;4861803;29;20070;-79
2023/03/26 01:10:51;;;;;;;1999.90;999.90;;;9.20;99.90;;;;;;4896205;29;20079;-79
2023/03/26 01:13:24;;;;;;;1999.90;672.67;;;9.80;81.00;;;;;;4884955;29;20052;-79
2023/03/26 01:15:51;;;;;;;1999.90;999.90;;;11.10;1.00;;;;;;4901193;29;20112;-79
2023/03/26 01:18:25;;;;;;;1999.90;999.90;;;9.90;1.00;;;;;;4916186;29;20071;-79
2023/03/26 01:20:57;;;;;;;1999.90;999.90;;;9.70;29.50;;;;;;4887023;29;20457;-78
2023/03/26 01:23:33;;;;;;;1999.90;303.63;;;9.70;1.00;;;;;;4866885;29;20494;-78
2023/03/26 01:26:10;;;;;;;1999.90;999.90;;;10.30;99.90;;;;;;4897228;29;20405;-78
2023/03/26 01:28:45;;;;;;;1999.90;999.90;;;9.90;99.90;;;;;;4913033;29;20071;-78
2023/03/26 01:31:35;;;;;;;1999.90;493.55;;;9.80;99.90;;;;;;4900869;29;20524;-78
2023/03/26 01:34:29;;;;;;;1999.90;415.85;;;9.60;99.90;;;;;;4901340;29;20040;-78
2023/03/26 01:37:33;;;;;;;1999.90;999.90;;;9.20;1.00;;;;;;4878271;29;20108;-78
2023/03/26 01:40:06;;;;;;;1999.90;999.90;;;9.70;1.00;;;;;;4898076;29;20095;-81
2023/03/26 01:42:45;;;;;;;1999.90;999.90;;;10.70;99.90;;;;;;4914213;29;20052;-82
2023/03/26 01:45:17;;;;;;;;;;;9.80;99.90;;;;;;4916836;29;20143;-81
2023/03/26 01:47:46;;;;;;;1999.90;999.90;;;11.10;1.00;;;;;;4899036;29;19930;-81
2023/03/26 01:50:16;;;;;;;1999.90;999.90;;;9.80;99.90;;;;;;4918969;29;20067;-81
2023/03/26 01:52:42;;;;;;;1999.90;999.90;;;;;;;;;;4898560;29;20044;-81
2023/03/26 01:55:10;;;;;;;1774.38;771.20;;;11.60;18.40;;;;;;4893461;29;20143;-82
2023/03/26 01:57:56;;;;;;;;;;;9.70;1.00;;;;;;4879939;29;20516;-81
2023/03/26 02:00:31;;;;;;;1999.90;999.90;;;9.70;99.90;;;;;;4907345;29;19931;-84
2023/03/26 02:03:42;;;;;;;1999.90;999.90;;;9.70;99.90;;;;;;4910416;29;20047;-78
2023/03/26 02:06:30;;;;;;;1999.90;999.90;;;10.40;99.90;;;;;;4894794;29;20060;-83
2023/03/26 02:09:13;;;;;;;1999.90;999.90;;;9.60;99.90;;;;;;4911065;29;20123;-78
2023/03/26 02:11:46;;;;;;;1999.90;999.90;;;9.60;1.00;;;;;;4894920;29;20055;-81
2023/03/26 02:14:13;;;;;;;1999.90;999.90;;;9.60;1.00;;;;;;4894877;29;20055;-81
2023/03/26 02:16:39;;;;;;;1999.90;999.90;;;9.70;1.00;;;;;;4910860;29;20070;-81
2023/03/26 02:19:08;;;;;;;1999.90;999.90;;;6.80;99.90;;;;;;4894153;29;20355;-81
2023/03/26 02:21:34;;;;;;;1999.90;999.90;;;;;;;;;;4894127;29;20060;-78
2023/03/26 02:24:03;;;;;;;1999.90;354.85;;;9.40;99.90;;;;;;4894472;29;20107;-78
2023/03/26 02:26:31;;;;;;;1999.90;999.90;;;9.40;99.90;;;;;;4910486;29;20052;-77
2023/03/26 02:28:57;;;;;;;1999.90;999.90;;;9.40;1.00;;;;;;4907927;29;20060;-78
2023/03/26 02:31:26;;;;;;;1999.90;630.75;;;9.40;1.00;;;;;;4887909;29;20067;-77
2023/03/26 02:33:54;;;;;;;1999.90;999.90;;;9.00;99.90;;;;;;4894058;29;20133;-77
2023/03/26 02:36:23;;;;;;;1999.90;999.90;;;8.50;99.90;;;;;;4909503;29;20416;-77
2023/03/26 02:38:49;;;;;;;1999.90;999.90;;;8.40;1.00;;;;;;4909477;29;20052;-77
2023/03/26 02:41:16;;;;;;;1999.90;999.90;;;9.10;1.00;;;;;;4894449;29;20062;-81
2023/03/26 02:43:41;;;;;;;1999.90;999.90;;;9.40;1.00;;;;;;4878613;29;20080;-78
2023/03/26 02:46:07;;;;;;;1999.90;999.90;;;9.80;1.00;;;;;;4908135;29;20089;-78
2023/03/26 02:48:35;;;;;;;1999.90;447.60;;;9.40;1.00;;;;;;4910356;29;20505;-79
2023/03/26 02:51:03;;;;;;;1999.90;999.90;;;9.40;61.60;;;;;;4909817;29;20493;-80
2023/03/26 02:53:29;;;;;;;1999.90;999.90;;;9.40;99.90;;;;;;4910942;29;20044;-77
2023/03/26 02:55:59;;;;;;;1999.90;999.90;;;10.40;72.80;;;;;;4896034;29;20080;-77
2023/03/26 02:58:25;;;;;;;1928.82;407.00;;;10.30;99.90;;;;;;4894112;29;20138;-83
2023/03/26 03:00:55;;;;;;;1999.90;609.75;;;9.30;1.00;;;;;;4923409;29;20051;-77
2023/03/26 03:03:27;;;;;;;1999.90;999.90;;;;;;;;;;4893222;29;20052;-80
2023/03/26 03:05:54;;;;;;;1999.90;999.90;;;9.30;99.90;;;;;;4890164;29;20166;-81
2023/03/26 03:08:22;;;;;;;1999.90;999.90;;;8.60;78.20;;;;;;4905470;29;20243;-80
2023/03/26 03:11:05;;;;;;;1999.90;999.90;;;9.20;99.90;;;;;;4894856;29;20044;-80
2023/03/26 03:13:31;;;;;;;1999.90;999.90;;;9.10;99.90;;;;;;4896013;29;20036;-80
2023/03/26 03:15:58;;;;;;;1999.90;999.90;;;;;;;;;;4893256;29;20052;-84
2023/03/26 03:18:25;;;;;;;1999.90;658.47;;;8.90;99.90;;;;;;4879755;29;20052;-80
2023/03/26 03:20:52;;;;;;;1999.90;999.90;;;8.80;1.00;;;;;;4898572;29;20138;-81
2023/03/26 03:23:18;;;;;;;1999.90;694.35;;;8.40;99.90;;;;;;4906560;29;20048;-80
2023/03/26 03:25:44;;;;;;;1999.90;659.13;;;8.70;99.90;;;;;;4921952;29;20052;-80
2023/03/26 03:28:10;;;;;;;1999.90;439.38;;;8.50;99.90;;;;;;4898030;29;20040;-80
2023/03/26 03:30:36;;;;;;;1999.90;999.90;;;9.70;99.90;;;;;;4899501;29;20056;-80
2023/03/26 03:33:04;;;;;;;1999.90;999.90;;;8.30;99.90;;;;;;4899696;29;20059;-80
2023/03/26 03:35:32;;;;;;;;;;;8.90;99.90;;;;;;4916092;29;20044;-80
2023/03/26 03:37:58;;;;;;;1999.90;999.90;;;8.20;99.90;;;;;;4895868;29;19927;-80
2023/03/26 03:40:24;;;;;;;1999.90;999.90;;;7.90;1.00;;;;;;4913405;29;20099;-80
2023/03/26 03:42:50;;;;;;;1999.90;628.85;;;8.10;99.90;;;;;;4915106;29;20050;-80
2023/03/26 03:45:17;;;;;;;1999.90;999.90;;;8.70;1.00;;;;;;4899245;29;20048;-80
2023/03/26 03:47:43;;;;;;;1999.90;999.90;;;8.10;1.00;;;;;;4898743;29;20044;-80
2023/03/26 03:50:09;;;;;;;1999.90;999.90;;;7.70;29.80;;;;;;4915063;29;20052;-80
2023/03/26 03:52:35;;;;;;;1999.90;263.00;;;8.00;1.00;;;;;;4888354;29;20111;-80
2023/03/26 03:55:01;;;;;;;1999.90;999.90;;;8.10;91.90;;;;;;4886346;29;20056;-81
2023/03/26 03:57:28;;;;;;;1999.90;999.90;;;;;;;;;;4917900;29;20465;-80
2023/03/26 03:59:57;;;;;;;1999.90;999.90;;;;;;;;;;4902068;29;20147;-80
2023/03/26 04:02:29;;;;;;;1999.90;999.90;;;8.30;99.90;;;;;;4902774;29;20048;-80
2023/03/26 04:04:58;;;;;;;1999.90;999.90;;;8.20;99.90;;;;;;4903286;29;20051;-79
2023/03/26 04:07:25;;;;;;;1999.90;999.90;;;8.70;99.90;;;;;;4918365;29;20052;-79
2023/03/26 04:09:51;;;;;;;1999.90;999.90;;;8.10;99.90;;;;;;4918149;29;20067;-80
2023/03/26 04:12:16;;;;;;;1999.90;999.90;;;8.60;99.90;;;;;;4883940;29;20044;-80
2023/03/26 04:14:42;;;;;;;1999.90;999.90;;;6.10;99.90;;;;;;4886619;29;20055;-80
2023/03/26 04:17:08;;;;;;;1999.90;519.60;;;8.00;99.90;;;;;;4883943;29;20055;-81
2023/03/26 04:19:34;;;;;;;1999.90;999.90;;;8.30;99.90;;;;;;4895641;29;20059;-81
2023/03/26 04:22:01;;;;;;;1999.90;999.90;;;8.30;1.00;;;;;;4916590;29;20049;-81
2023/03/26 04:24:32;;;;;;;1999.90;999.90;;;8.10;1.00;;;;;;4900313;29;20130;-80
2023/03/26 04:27:03;;;;;;;1999.90;999.90;;;8.40;1.00;;;;;;4908346;29;20044;-80
2023/03/26 04:29:33;;;;;;;1999.90;999.90;;;8.40;27.30;;;;;;4901487;29;20056;-81
2023/03/26 04:32:05;;;;;;;1999.90;999.90;;;9.30;1.00;;;;;;4918076;29;20131;-80
2023/03/26 04:34:32;;;;;;;1999.90;999.90;;;9.50;70.40;;;;;;4902505;29;20127;-80
2023/03/26 04:37:00;;;;;;;1999.90;999.90;;;9.10;97.10;;;;;;4918584;29;20044;-80
2023/03/26 04:39:29;;;;;;;1999.90;999.90;;;;;;;;;;4916095;29;20052;-80
2023/03/26 04:41:56;;;;;;;1995.15;222.75;;;8.40;91.50;;;;;;4883066;29;20131;-80
2023/03/26 04:44:22;;;;;;;1999.90;680.03;;;8.40;99.90;;;;;;4907254;29;20048;-80
2023/03/26 04:49:24;;;;;;;1999.90;999.90;;;8.50;78.40;;;;;;4973969;23;20067;-81
2023/03/26 04:51:50;;;;;;;1999.90;999.90;;;8.90;99.90;;;;;;4936906;29;20056;-81
2023/03/26 04:54:19;;;;;;;1999.90;999.90;;;9.40;99.90;;;;;;4938158;29;20063;-82
2023/03/26 04:56:47;;;;;;;1999.90;999.90;;;9.30;99.90;;;;;;4920659;29;20055;-81
2023/03/26 04:59:24;;;;;;;1999.90;999.90;;;8.10;99.90;;;;;;4936918;29;20205;-81
2023/03/26 05:01:54;;;;;;;1999.90;425.95;;;8.60;99.90;;;;;;4934393;29;20071;-82
2023/03/26 05:04:19;;;;;;;1999.90;661.13;;;8.20;99.90;;;;;;4918967;29;20065;-81
2023/03/26 05:06:46;;;;;;;1999.90;999.90;;;;;;;;;;4919177;29;20129;-81
2023/03/26 05:09:13;;;;;;;1999.90;999.90;;;10.10;99.90;;;;;;4931640;29;20048;-82
2023/03/26 05:11:39;;;;;;;1999.90;999.90;;;9.60;1.00;;;;;;4936159;29;20044;-81
2023/03/26 05:14:05;;;;;;;1999.90;999.90;;;8.70;99.90;;;;;;4935617;29;20070;-81
2023/03/26 05:16:30;;;;;;;1999.90;999.90;;;8.70;99.90;;;;;;4936402;29;20505;-81
2023/03/26 05:18:56;;;;;;;1999.90;999.90;;;8.80;99.90;;;;;;4937106;29;20044;-81
2023/03/26 05:21:22;;;;;;;1999.90;999.90;;;7.70;99.90;;;;;;4936347;29;20473;-81
2023/03/26 05:23:48;;;;;;;1999.90;999.90;;;8.80;99.90;;;;;;4937479;29;20082;-81
2023/03/26 05:26:14;;;;;;;1999.90;717.53;;;9.00;99.90;;;;;;4934203;29;20063;-81
2023/03/26 05:28:40;;;;;;;1999.90;999.90;;;7.40;99.90;;;;;;4927229;29;20411;-81
2023/03/26 05:31:07;;;;;;;1999.90;700.28;;;8.70;99.90;;;;;;4929933;29;20044;-82
2023/03/26 05:33:32;;;;;;;1999.90;999.90;;;8.70;99.90;;;;;;4933079;29;20563;-82
2023/03/26 05:36:05;;;;;;;1999.90;999.90;;;8.80;99.90;;;;;;4926330;29;20039;-83
2023/03/26 05:38:32;;;;;;;1999.90;999.90;;;8.80;99.90;;;;;;4929407;29;20043;-83
2023/03/26 05:41:04;;;;;;;1999.90;999.90;;;9.20;99.90;;;;;;4932432;29;20106;-80
2023/03/26 05:43:30;;;;;;;1999.90;416.25;;;8.90;99.90;;;;;;4929539;29;20134;-80
2023/03/26 05:45:55;;;;;;;1999.90;999.90;;;9.20;99.90;;;;;;4933560;29;20107;-80
2023/03/26 05:48:22;;;;;;;1999.90;999.90;;;8.90;99.90;;;;;;4931828;29;20047;-81
2023/03/26 05:50:50;;;;;;;1999.90;999.90;;;8.90;99.90;;;;;;4930468;29;20059;-81
2023/03/26 05:58:30;;;;;;;1999.90;999.90;;;9.00;99.90;;;;;;5233297;23;20431;-82
2023/03/26 06:01:04;;;;;;;1999.90;999.90;;;11.00;29.60;;;;;;5411188;23;20062;-82
2023/03/26 06:03:31;;;;;;;1999.90;999.90;;;9.10;90.00;;;;;;4929975;29;20539;-81
2023/03/26 06:05:57;;;;;;;1999.90;999.90;;;14.10;99.90;;;;;;4930477;29;20362;-81
2023/03/26 06:08:23;;;;;;;1999.90;999.90;;;9.20;99.90;;;;;;4952993;29;20059;-81
2023/03/26 06:10:52;;;;;;;1999.90;999.90;;;9.10;99.90;;;;;;4931620;29;20052;-82
2023/03/26 06:13:18;;;;;;;1999.90;999.90;;;9.50;99.90;;;;;;4935679;28;20051;-81
2023/03/26 06:15:44;;;;;;;1999.90;999.90;;;9.40;99.90;;;;;;4918257;29;20451;-82
2023/03/26 06:18:10;;;;;;;1999.90;999.90;;;8.60;99.90;;;;;;4949386;29;20059;-82
2023/03/26 06:20:36;;;;;;;1999.90;999.90;;;9.50;99.90;;;;;;4930525;29;20078;-81
2023/03/26 06:23:02;;;;;;;1999.90;999.90;;;10.30;99.90;;;;;;4929387;28;20058;-82
2023/03/26 06:25:27;;;;;;;1999.90;276.45;;;10.40;81.40;;;;;;4936322;29;20047;-82
2023/03/26 06:27:53;;;;;;;1999.90;296.92;;;10.10;99.90;;;;;;4926929;29;20056;-83
2023/03/26 06:30:19;;;;;;;1999.90;999.90;;;9.60;99.90;;;;;;4932086;29;20052;-81
2023/03/26 06:32:44;;;;;;;1999.90;499.20;;;9.80;99.90;;;;;;4937492;29;20515;-81
2023/03/26 06:35:10;;;;;;;1999.90;751.97;;;10.50;93.50;;;;;;4921565;29;20098;-81
2023/03/26 06:37:36;;;;;;;1999.90;999.90;;;9.80;1.00;;;;;;4942539;29;20094;-81
2023/03/26 06:40:03;;;;;;;1999.90;999.90;;;10.80;1.00;;;;;;4936011;29;20046;-81
2023/03/26 06:42:28;;;;;;;1999.90;999.90;;;9.80;99.90;;;;;;4935732;29;20134;-81
2023/03/26 06:44:54;;;;;;;1999.90;999.90;;;9.50;1.00;;;;;;4917848;29;20079;-82
2023/03/26 06:47:20;;;;;;;1999.90;999.90;;;10.30;99.90;;;;;;4934072;29;20455;-81
2023/03/26 06:49:45;;;;;;;1999.90;999.90;;;9.80;99.90;;;;;;4917138;29;20491;-81
2023/03/26 06:52:11;;;;;;;1999.90;999.90;;;10.20;99.90;;;;;;4938044;29;20046;-82
2023/03/26 06:54:37;;;;;;;1999.90;999.90;;;9.90;99.90;;;;;;4927719;29;20062;-81
2023/03/26 06:57:03;;;;;;;1999.90;999.90;;;10.20;99.90;;;;;;4943022;29;20387;-81
2023/03/26 06:59:29;;;;;;;1999.90;999.90;;;10.00;99.90;;;;;;4944677;29;20212;-81
2023/03/26 07:01:55;;;;;;;1999.90;999.90;;;10.10;99.90;;;;;;4947989;29;20516;-81
2023/03/26 07:04:20;;;;;;;1999.90;999.90;;;10.10;99.90;;;;;;4951781;29;20055;-81
2023/03/26 07:06:46;;;;;;;1999.90;999.90;;;9.50;61.30;;;;;;4937126;29;20501;-81
2023/03/26 07:09:12;;;;;;;1999.90;999.90;;;8.80;1.00;;;;;;4937337;28;20138;-80
2023/03/26 07:11:37;;;;;;;1999.90;818.53;;;10.30;1.00;;;;;;4927212;29;20051;-81
2023/03/26 07:14:03;;;;;;;1999.90;999.90;;;10.50;99.90;;;;;;4923147;29;20196;-81
2023/03/26 07:16:29;;;;;;;1999.90;999.90;;;10.50;99.90;;;;;;4929496;29;20047;-80
2023/03/26 07:18:55;;;;;;;1999.90;999.90;;;9.50;99.90;;;;;;4931907;29;20071;-81
2023/03/26 07:21:21;;;;;;;1999.90;766.03;;;10.60;65.90;;;;;;4943550;29;20043;-80
2023/03/26 07:23:48;;;;;;;1818.30;788.30;;;10.60;1.00;;;;;;4933612;28;20044;-81
2023/03/26 07:26:33;;;;;;;1852.75;611.38;;;10.60;99.90;;;;;;4928738;29;20048;-81
2023/03/26 07:29:26;;;;;;;1662.00;200.48;;;9.40;1.00;;;;;;4917809;29;20067;-81
2023/03/26 07:32:15;;;;;;;1999.90;767.72;;;8.40;99.90;;;;;;4916316;29;20056;-80
2023/03/26 07:34:52;;;;;;;1999.90;999.90;;;10.70;99.90;;;;;;4933900;29;20084;-80
2023/03/26 07:37:23;;;;;;;1187.65;134.25;;;10.80;24.50;;;;;;4921604;29;20115;-81
2023/03/26 07:40:11;;;;;;;1923.57;451.38;;;11.10;99.90;;;;;;4927769;29;20098;-86
2023/03/26 07:42:45;;;;;;;1999.90;517.45;;;11.10;99.90;;;;;;4934704;29;20122;-81
2023/03/26 07:45:14;;;;;;;1999.90;988.28;;;11.10;1.00;;;;;;4924919;29;20048;-82
2023/03/26 07:47:41;;;;;;;1999.90;896.03;;;11.30;1.00;;;;;;4933686;29;20138;-81
2023/03/26 07:50:13;;;;;;;1811.82;590.63;;;11.40;99.90;;;;;;4950437;28;20215;-88
2023/03/26 07:52:39;;;;;;;1999.90;999.90;;;11.40;1.00;;;;;;4953331;28;20086;-81
2023/03/26 07:55:06;;;;;;;1999.90;574.17;;;11.50;99.90;;;;;;4952748;28;20062;-82
2023/03/26 07:57:47;;;;;;;1999.90;984.13;;;11.50;99.90;;;;;;4931661;29;20058;-81
2023/03/26 08:00:31;;;;;;;1999.90;848.17;;;12.20;1.00;;;;;;4943333;29;20376;-81
2023/03/26 08:03:28;;;;;;;1999.90;999.90;;;11.50;99.90;;;;;;4933615;29;20071;-82
2023/03/26 08:06:10;;;;;;;1678.00;594.53;;;11.40;99.90;;;;;;4895328;29;20130;-81
2023/03/26 08:09:01;;;;;;;1673.00;310.88;;;11.50;99.90;;;;;;4911210;29;20051;-81
2023/03/26 08:11:52;;;;;;;1969.15;396.17;;;11.20;99.90;;;;;;4886983;29;20429;-86
2023/03/26 08:14:53;;;;;;;1891.10;812.47;;;11.50;99.90;;;;;;4911514;29;20041;-85
2023/03/26 08:17:41;;;;;;;1999.90;864.25;;;11.30;99.90;;;;;;4905886;29;21944;-85
2023/03/26 08:20:29;;;;;;;1999.90;529.92;;;11.90;99.90;;;;;;4913017;29;20387;-83
2023/03/26 08:23:24;;;;;;;1760.07;722.37;;;12.40;93.40;;;;;;4917132;29;20126;-81
2023/03/26 08:25:49;;;;;;;1999.90;999.90;;;12.30;43.60;;;;;;4915718;29;20039;-88
2023/03/26 08:28:42;;;;;;;1693.20;589.88;;;12.40;1.00;;;;;;4911478;29;20150;-82
2023/03/26 08:31:10;;;;;;;1836.75;645.78;;;12.50;1.00;;;;;;4916569;29;20055;-86
2023/03/26 08:33:35;;;;;;;1927.47;289.40;;;12.50;1.00;;;;;;4909604;29;20054;-81
2023/03/26 08:36:01;;;;;;;1813.13;432.15;;;12.50;1.00;;;;;;4916396;29;20052;-81
2023/03/26 08:38:27;;;;;;;1999.90;999.90;;;12.50;1.00;;;;;;4910664;29;20055;-82
2023/03/26 08:40:55;;;;;;;1796.05;795.50;;;12.60;1.00;;;;;;4938688;29;20158;-81
2023/03/26 08:43:58;;;;;;;1842.35;800.67;;;12.70;1.00;;;;;;4953634;29;20043;-80
2023/03/26 08:46:27;;;;;;;1999.90;999.90;;;12.70;1.00;;;;;;4951489;29;20061;-83
2023/03/26 08:49:22;;;;;;;1711.32;618.30;;;12.70;1.00;;;;;;4935005;29;20044;-81
2023/03/26 08:52:16;;;;;;;1999.90;999.90;;;12.60;1.00;;;;;;4925712;29;20369;-80
2023/03/26 08:55:02;;;;;;;1473.20;584.88;;;12.60;99.90;;;;;;4943676;29;20388;-81
2023/03/26 08:57:28;;;;;;;1999.90;999.90;;;12.50;99.90;;;;;;4943984;29;20054;-81
2023/03/26 08:59:59;;;;;;;1999.90;999.90;;;12.50;99.90;;;;;;4944957;29;20047;-81
2023/03/26 09:03:03;;;;;;;1832.00;621.85;;;12.50;99.90;;;;;;4943154;29;20055;-80
2023/03/26 09:05:53;;;;;;;1999.90;999.90;;;12.60;99.90;;;;;;4947360;28;20086;-81
2023/03/26 09:08:19;;;;;;;1923.53;349.23;;;12.70;99.90;;;;;;4954809;28;20096;-82
2023/03/26 09:10:56;;;;;;;1999.90;856.58;;;12.90;99.90;;;;;;4948700;29;20055;-80
2023/03/26 09:13:21;;;;;;;1480.93;575.17;;;13.10;99.90;;;;;;4955593;29;20043;-81
2023/03/26 09:16:05;;;;;;;1786.38;798.15;;;13.20;99.90;;;;;;4956655;29;20050;-80
2023/03/26 09:18:42;;;;;;;1087.72;359.95;;;13.50;99.90;;;;;;4950849;28;20047;-81
2023/03/26 09:21:30;;;;;;;1999.90;485.40;;;13.60;99.90;;;;;;4953307;29;20364;-81
2023/03/26 09:24:21;;;;;;;1322.82;173.73;;;13.80;99.90;;;;;;4954890;29;20118;-80
2023/03/26 09:26:50;;;;;;;1999.90;999.90;;;13.90;99.90;;;;;;4940123;29;20071;-81
2023/03/26 09:29:45;;;;;;;1999.90;999.90;;;14.10;99.90;;;;;;4927067;29;20083;-81
2023/03/26 09:33:04;;;;;;;1999.90;999.90;;;14.30;99.90;;;;;;4918462;29;20102;-81
2023/03/26 09:36:07;;;;;;;1999.90;999.90;;;14.50;99.90;;;;;;4930565;28;20059;-81
2023/03/26 09:38:46;;;;;;;1999.90;999.90;;;14.80;99.90;;;;;;4954008;28;20057;-83
2023/03/26 09:41:16;;;;;;;1999.90;999.90;;;15.10;99.90;;;;;;4943477;29;20044;-81
2023/03/26 09:44:04;;;;;;;1999.90;999.90;;;15.50;99.90;;;;;;4934661;29;20046;-87
2023/03/26 09:47:21;;;;;;;1999.90;999.90;;;16.10;99.90;;;;;;4917900;29;20095;-81
2023/03/26 09:49:52;;;;;;;1999.90;999.90;;;16.50;99.90;;;;;;4891788;29;20572;-81
2023/03/26 09:52:49;;;;;;;1999.90;999.90;;;16.40;99.90;;;;;;4934850;29;20178;-81
2023/03/26 09:55:27;;;;;;;1999.90;999.90;;;16.40;99.90;;;;;;4956021;28;20043;-81
2023/03/26 09:57:58;;;;;;;1999.90;999.90;;;16.10;99.90;;;;;;4949697;29;20077;-82
2023/03/26 10:00:40;;;;;;;1999.90;999.90;;;15.70;99.90;;;;;;4937908;29;20064;-80
2023/03/26 10:03:32;;;;;;;1999.90;999.90;;;15.40;99.90;;;;;;4953498;28;20050;-83
2023/03/26 10:06:40;;;;;;;1999.90;999.90;;;15.00;99.90;;;;;;4955697;28;20138;-87
2023/03/26 10:09:36;;;;;;;1999.90;999.90;;;14.80;99.90;;;;;;4954259;29;20051;-81
2023/03/26 10:12:27;;;;;;;1999.90;999.90;;;14.60;99.90;;;;;;4917668;29;20365;-81
2023/03/26 10:15:02;;;;;;;1999.90;999.90;;;14.40;99.90;;;;;;4915435;29;20067;-81
2023/03/26 10:17:34;;;;;;;1999.90;999.90;;;14.30;99.90;;;;;;4924489;29;20036;-82
2023/03/26 10:20:28;;;;;;;1999.90;999.90;;;14.40;99.90;;;;;;4951713;29;20078;-82
2023/03/26 10:23:29;;;;;;;1999.90;999.90;;;14.40;99.90;;;;;;4955655;28;20174;-81
2023/03/26 10:26:03;;;;;;;1999.90;999.90;;;14.50;99.90;;;;;;4955055;28;20086;-81
2023/03/26 10:28:35;;;;;;;1999.90;999.90;;;14.60;99.90;;;;;;4946011;28;20051;-80
2023/03/26 10:31:43;;;;;;;1999.90;999.90;;;14.60;99.90;;;;;;4921434;28;20040;-80
2023/03/26 10:34:27;;;;;;;1999.90;999.90;;;14.40;99.90;;;;;;4921828;29;20067;-81
2023/03/26 10:37:31;;;;;;;1999.90;999.90;;;14.50;99.90;;;;;;4936261;29;20051;-83
2023/03/26 10:40:06;;;;;;;1999.90;999.90;;;14.70;99.90;;;;;;4949969;29;20065;-81
2023/03/26 10:42:50;;;;;;;1999.90;999.90;;;14.70;99.90;;;;;;4954568;28;20039;-81
2023/03/26 10:45:43;;;;;;;1999.90;529.22;;;14.70;99.90;;;;;;4952511;29;20043;-81
2023/03/26 10:48:20;;;;;;;1999.90;999.90;;;14.60;99.90;;;;;;4951331;29;20476;-81
2023/03/26 10:51:03;;;;;;;1999.90;999.90;;;14.40;99.90;;;;;;4954686;28;20043;-81
2023/03/26 10:53:37;;;;;;;1999.90;999.90;;;14.30;99.90;;;;;;4954854;29;20043;-81
2023/03/26 10:56:25;;;;;;;1999.90;999.90;;;14.20;99.90;;;;;;4941180;28;20098;-81
2023/03/26 10:58:52;;;;;;;1999.90;999.90;;;14.10;99.90;;;;;;4934522;29;20042;-80
2023/03/26 11:01:26;;;;;;;1999.90;999.90;;;14.00;99.90;;;;;;4918612;28;20465;-81
2023/03/26 11:03:54;;;;;;;1999.90;999.90;;;13.80;99.90;;;;;;4954248;29;20047;-80
2023/03/26 11:06:44;;;;;;;1999.90;855.03;;;13.60;99.90;;;;;;4932036;29;20048;-81
2023/03/26 11:09:28;;;;;;;1999.90;999.90;;;13.40;99.90;;;;;;4928755;29;20483;-81
2023/03/26 11:12:26;;;;;;;1999.90;999.90;;;13.30;99.90;;;;;;4952351;29;20051;-81
2023/03/26 11:15:03;;;;;;;1999.90;999.90;;;13.20;99.90;;;;;;4936090;28;20505;-81
2023/03/26 11:17:59;;;;;;;1999.90;999.90;;;13.30;99.90;;;;;;4937082;29;20523;-82
2023/03/26 11:20:47;;;;;;;1999.90;999.90;;;13.40;99.90;;;;;;4924186;29;20150;-81
2023/03/26 11:23:35;;;;;;;1999.90;999.90;;;13.50;99.90;;;;;;4917413;29;20131;-80
2023/03/26 11:26:24;;;;;;;1999.90;999.90;;;13.50;99.90;;;;;;4933916;29;20082;-80
2023/03/26 11:29:10;;;;;;;1999.90;999.90;;;13.50;99.90;;;;;;4925814;29;20051;-80
2023/03/26 11:31:59;;;;;;;1999.90;999.90;;;13.50;99.90;;;;;;4925167;29;20064;-88
2023/03/26 11:35:04;;;;;;;1999.90;999.90;;;13.50;99.90;;;;;;4928106;29;20095;-81
2023/03/26 11:37:41;;;;;;;1999.90;999.90;;;13.60;99.90;;;;;;4905769;29;20052;-80
2023/03/26 11:40:20;;;;;;;1999.90;887.53;;;13.60;99.90;;;;;;4936027;29;20059;-79
2023/03/26 11:42:48;;;;;;;1999.90;999.90;;;13.60;99.90;;;;;;4922209;29;20059;-82
2023/03/26 11:45:20;;;;;;;1999.90;999.90;;;13.60;99.90;;;;;;4926864;29;20051;-80
2023/03/26 11:47:58;;;;;;;1999.90;999.90;;;13.60;99.90;;;;;;4925150;29;20058;-80
2023/03/26 11:50:31;;;;;;;1999.90;999.90;;;13.70;99.90;;;;;;4923260;29;20051;-80
2023/03/26 11:53:16;;;;;;;1999.90;721.30;;;13.70;99.90;;;;;;4935965;29;20047;-81
2023/03/26 11:56:08;;;;;;;1999.90;999.90;;;13.80;99.90;;;;;;4944584;28;20055;-82
2023/03/26 11:58:48;;;;;;;1999.90;999.90;;;13.70;99.90;;;;;;4935300;29;20047;-82
2023/03/26 12:01:29;;;;;;;1999.90;999.90;;;13.70;99.90;;;;;;4934342;29;20062;-81
2023/03/26 12:04:05;;;;;;;1999.90;999.90;;;13.70;99.90;;;;;;4948795;29;20431;-81
2023/03/26 12:06:31;;;;;;;1999.90;999.90;;;13.70;99.90;;;;;;4920722;29;20541;-81
2023/03/26 12:08:57;;;;;;;1999.90;699.30;;;13.80;99.90;;;;;;4938906;29;20098;-81
2023/03/26 12:11:30;;;;;;;1999.90;883.33;;;13.80;99.90;;;;;;4934911;28;20081;-81
2023/03/26 12:14:02;;;;;;;1999.90;999.90;;;13.90;99.90;;;;;;4943737;28;20076;-81
2023/03/26 12:16:28;;;;;;;1999.90;999.90;;;13.90;99.90;;;;;;4924604;29;20456;-80
2023/03/26 12:19:05;;;;;;;1999.90;999.90;;;14.00;99.90;;;;;;4931365;29;20138;-81
2023/03/26 12:21:44;;;;;;;1999.90;982.85;;;14.10;99.90;;;;;;4930376;29;20061;-88
2023/03/26 12:24:31;;;;;;;1999.90;999.90;;;14.10;99.90;;;;;;4946027;28;20047;-81
2023/03/26 12:27:12;;;;;;;1999.90;661.47;;;14.00;99.90;;;;;;4925715;29;20067;-82
2023/03/26 12:29:38;;;;;;;1999.90;999.90;;;13.90;99.90;;;;;;4926605;29;20051;-80
2023/03/26 12:32:11;;;;;;;1999.90;999.90;;;13.70;99.90;;;;;;4926042;29;20051;-81
2023/03/26 12:34:38;;;;;;;1999.90;999.90;;;13.60;99.90;;;;;;4931134;29;20071;-81
2023/03/26 12:37:05;;;;;;;1999.90;908.50;;;13.40;99.90;;;;;;4952625;29;20399;-82
2023/03/26 12:39:31;;;;;;;1999.90;999.90;;;13.30;99.90;;;;;;4953012;29;20055;-80
2023/03/26 12:42:00;;;;;;;1999.90;999.90;;;13.20;99.90;;;;;;4954505;28;20047;-80
2023/03/26 12:44:49;;;;;;;1999.90;999.90;;;13.00;99.90;;;;;;4945155;28;20121;-80
2023/03/26 12:47:21;;;;;;;1999.90;999.90;;;12.90;99.90;;;;;;4937276;29;20059;-85
2023/03/26 12:49:50;;;;;;;1999.90;999.90;;;12.80;99.90;;;;;;4935194;29;20052;-80
2023/03/26 12:52:37;;;;;;;1999.90;894.60;;;12.80;99.90;;;;;;4938263;29;20047;-80